Terminal Aerodrome Forecast
Issued by NWS

Home | Current Version | Previous Version | Text Only | Print | Product List | Glossary On
Versions: 1 2 3 4 5 6 7 8 9 10 11 12 13
147
FTUS44 KTSA 290526
TAFMLC
TAF
KMLC 290526Z 2906/3006 09005KT P6SM SCT050 SCT250
      TEMPO 2910/2914 4SM TS OVC025CB
     FM291400 07007KT 6SM -TSRA OVC012CB
      TEMPO 2914/2918 4SM -TSRA OVC007CB
     FM291800 10007KT P6SM VCTS OVC015CB
     FM292200 13010KT P6SM VCTS BKN025CB
     FM300000 15007KT P6SM BKN050=

USA.gov is the U.S. government's official web portal to all federal, state and local government web resources and services.